sensor_id;sensor_type;location;lat;lon;timestamp;P1;durP1;ratioP1;P2;durP2;ratioP2
50745;SDS011;36711;51.972;21.204;2023-03-21T00:01:14;10.70;;;5.70;;
50745;SDS011;36711;51.972;21.204;2023-03-21T00:03:43;9.10;;;5.50;;
50745;SDS011;36711;51.972;21.204;2023-03-21T00:06:14;11.10;;;6.30;;
50745;SDS011;36711;51.972;21.204;2023-03-21T00:08:43;10.60;;;6.20;;
50745;SDS011;36711;51.972;21.204;2023-03-21T00:11:12;14.00;;;6.50;;
50745;SDS011;36711;51.972;21.204;2023-03-21T00:13:41;9.70;;;6.10;;
50745;SDS011;36711;51.972;21.204;2023-03-21T00:16:12;11.40;;;6.10;;
50745;SDS011;36711;51.972;21.204;2023-03-21T00:18:52;9.50;;;5.60;;
50745;SDS011;36711;51.972;21.204;2023-03-21T00:21:22;10.80;;;5.90;;
50745;SDS011;36711;51.972;21.204;2023-03-21T00:24:15;12.00;;;6.50;;
50745;SDS011;36711;51.972;21.204;2023-03-21T00:26:44;9.80;;;6.30;;
50745;SDS011;36711;51.972;21.204;2023-03-21T00:29:13;11.90;;;6.90;;
50745;SDS011;36711;51.972;21.204;2023-03-21T00:31:42;9.20;;;6.10;;
50745;SDS011;36711;51.972;21.204;2023-03-21T00:34:11;10.00;;;6.10;;
50745;SDS011;36711;51.972;21.204;2023-03-21T00:36:44;11.70;;;6.90;;
50745;SDS011;36711;51.972;21.204;2023-03-21T00:39:14;11.20;;;6.50;;
50745;SDS011;36711;51.972;21.204;2023-03-21T00:41:42;9.90;;;6.40;;
50745;SDS011;36711;51.972;21.204;2023-03-21T00:44:12;10.50;;;5.80;;
50745;SDS011;36711;51.972;21.204;2023-03-21T00:46:43;10.70;;;6.10;;
50745;SDS011;36711;51.972;21.204;2023-03-21T00:49:32;12.20;;;6.90;;
50745;SDS011;36711;51.972;21.204;2023-03-21T00:52:02;9.60;;;6.20;;
50745;SDS011;36711;51.972;21.204;2023-03-21T00:54:46;10.10;;;5.90;;
50745;SDS011;36711;51.972;21.204;2023-03-21T00:57:14;11.10;;;6.20;;
50745;SDS011;36711;51.972;21.204;2023-03-21T00:59:44;11.10;;;6.50;;
50745;SDS011;36711;51.972;21.204;2023-03-21T01:02:13;10.60;;;5.90;;
50745;SDS011;36711;51.972;21.204;2023-03-21T01:04:50;11.50;;;6.20;;
50745;SDS011;36711;51.972;21.204;2023-03-21T01:07:19;12.20;;;7.00;;
50745;SDS011;36711;51.972;21.204;2023-03-21T01:09:48;11.80;;;6.20;;
50745;SDS011;36711;51.972;21.204;2023-03-21T01:12:18;10.80;;;6.30;;
50745;SDS011;36711;51.972;21.204;2023-03-21T01:14:47;12.20;;;7.10;;
50745;SDS011;36711;51.972;21.204;2023-03-21T01:17:16;13.50;;;7.10;;
50745;SDS011;36711;51.972;21.204;2023-03-21T01:19:44;11.80;;;7.00;;
50745;SDS011;36711;51.972;21.204;2023-03-21T01:22:19;13.20;;;7.20;;
50745;SDS011;36711;51.972;21.204;2023-03-21T01:24:48;12.50;;;7.10;;
50745;SDS011;36711;51.972;21.204;2023-03-21T01:27:27;11.30;;;6.60;;
50745;SDS011;36711;51.972;21.204;2023-03-21T01:29:56;13.80;;;7.10;;
50745;SDS011;36711;51.972;21.204;2023-03-21T01:32:27;12.60;;;7.50;;
50745;SDS011;36711;51.972;21.204;2023-03-21T01:34:55;15.50;;;7.50;;
50745;SDS011;36711;51.972;21.204;2023-03-21T01:37:24;12.60;;;6.70;;
50745;SDS011;36711;51.972;21.204;2023-03-21T01:39:54;14.30;;;7.40;;
50745;SDS011;36711;51.972;21.204;2023-03-21T01:42:22;12.50;;;7.20;;
50745;SDS011;36711;51.972;21.204;2023-03-21T01:44:52;13.60;;;7.20;;
50745;SDS011;36711;51.972;21.204;2023-03-21T01:47:21;15.20;;;7.60;;
50745;SDS011;36711;51.972;21.204;2023-03-21T01:49:51;15.30;;;7.20;;
50745;SDS011;36711;51.972;21.204;2023-03-21T01:52:23;11.20;;;7.20;;
50745;SDS011;36711;51.972;21.204;2023-03-21T01:55:05;12.50;;;7.40;;
50745;SDS011;36711;51.972;21.204;2023-03-21T01:57:39;11.30;;;7.10;;
50745;SDS011;36711;51.972;21.204;2023-03-21T02:00:29;11.60;;;6.20;;
50745;SDS011;36711;51.972;21.204;2023-03-21T02:02:59;11.20;;;6.30;;
50745;SDS011;36711;51.972;21.204;2023-03-21T02:05:43;10.60;;;6.20;;
50745;SDS011;36711;51.972;21.204;2023-03-21T02:08:16;11.20;;;6.30;;
50745;SDS011;36711;51.972;21.204;2023-03-21T02:10:45;11.70;;;6.70;;
50745;SDS011;36711;51.972;21.204;2023-03-21T02:13:18;9.70;;;5.70;;
50745;SDS011;36711;51.972;21.204;2023-03-21T02:15:53;14.20;;;6.70;;
50745;SDS011;36711;51.972;21.204;2023-03-21T02:18:36;9.90;;;6.10;;
50745;SDS011;36711;51.972;21.204;2023-03-21T02:35:18;8.60;;;5.50;;
50745;SDS011;36711;51.972;21.204;2023-03-21T02:40:30;10.30;;;5.90;;
50745;SDS011;36711;51.972;21.204;2023-03-21T02:43:08;10.50;;;5.40;;
50745;SDS011;36711;51.972;21.204;2023-03-21T02:45:52;8.80;;;5.20;;
50745;SDS011;36711;51.972;21.204;2023-03-21T02:48:23;8.80;;;5.90;;
50745;SDS011;36711;51.972;21.204;2023-03-21T02:51:11;8.60;;;5.30;;
50745;SDS011;36711;51.972;21.204;2023-03-21T02:53:44;9.90;;;5.60;;
50745;SDS011;36711;51.972;21.204;2023-03-21T02:56:20;9.40;;;5.60;;
50745;SDS011;36711;51.972;21.204;2023-03-21T02:58:51;9.70;;;5.30;;
50745;SDS011;36711;51.972;21.204;2023-03-21T03:01:19;11.60;;;5.60;;
50745;SDS011;36711;51.972;21.204;2023-03-21T03:03:49;9.30;;;5.20;;
50745;SDS011;36711;51.972;21.204;2023-03-21T03:06:18;8.50;;;4.90;;
50745;SDS011;36711;51.972;21.204;2023-03-21T03:09:04;8.40;;;5.50;;
50745;SDS011;36711;51.972;21.204;2023-03-21T03:11:41;10.00;;;5.50;;
50745;SDS011;36711;51.972;21.204;2023-03-21T03:17:22;8.10;;;5.10;;
50745;SDS011;36711;51.972;21.204;2023-03-21T03:25:20;8.80;;;5.50;;
50745;SDS011;36711;51.972;21.204;2023-03-21T03:28:11;9.50;;;5.60;;
50745;SDS011;36711;51.972;21.204;2023-03-21T03:30:40;9.10;;;5.40;;
50745;SDS011;36711;51.972;21.204;2023-03-21T03:33:28;10.00;;;5.70;;
50745;SDS011;36711;51.972;21.204;2023-03-21T03:35:57;8.70;;;5.40;;
50745;SDS011;36711;51.972;21.204;2023-03-21T03:38:34;10.70;;;6.00;;
50745;SDS011;36711;51.972;21.204;2023-03-21T03:41:07;10.30;;;5.90;;
50745;SDS011;36711;51.972;21.204;2023-03-21T03:43:48;9.10;;;5.80;;
50745;SDS011;36711;51.972;21.204;2023-03-21T03:46:22;9.30;;;5.30;;
50745;SDS011;36711;51.972;21.204;2023-03-21T03:48:57;9.90;;;5.10;;
50745;SDS011;36711;51.972;21.204;2023-03-21T03:51:28;9.00;;;5.10;;
50745;SDS011;36711;51.972;21.204;2023-03-21T03:54:06;12.40;;;6.20;;
50745;SDS011;36711;51.972;21.204;2023-03-21T03:56:36;11.90;;;6.50;;
50745;SDS011;36711;51.972;21.204;2023-03-21T03:59:06;10.30;;;5.80;;
50745;SDS011;36711;51.972;21.204;2023-03-21T04:01:35;11.10;;;5.90;;
50745;SDS011;36711;51.972;21.204;2023-03-21T04:04:05;11.30;;;6.20;;
50745;SDS011;36711;51.972;21.204;2023-03-21T04:06:44;11.90;;;7.10;;
50745;SDS011;36711;51.972;21.204;2023-03-21T04:09:19;8.40;;;5.80;;
50745;SDS011;36711;51.972;21.204;2023-03-21T04:11:59;12.40;;;6.90;;
50745;SDS011;36711;51.972;21.204;2023-03-21T04:14:27;10.60;;;6.50;;
50745;SDS011;36711;51.972;21.204;2023-03-21T04:17:11;12.40;;;6.20;;
50745;SDS011;36711;51.972;21.204;2023-03-21T04:19:40;11.40;;;6.60;;
50745;SDS011;36711;51.972;21.204;2023-03-21T04:22:09;17.90;;;7.60;;
50745;SDS011;36711;51.972;21.204;2023-03-21T04:24:38;15.70;;;7.60;;
50745;SDS011;36711;51.972;21.204;2023-03-21T04:27:07;15.20;;;7.50;;
50745;SDS011;36711;51.972;21.204;2023-03-21T04:29:36;17.70;;;7.60;;
50745;SDS011;36711;51.972;21.204;2023-03-21T04:32:05;17.70;;;8.00;;
50745;SDS011;36711;51.972;21.204;2023-03-21T04:34:47;13.80;;;7.30;;
50745;SDS011;36711;51.972;21.204;2023-03-21T04:37:17;20.60;;;9.50;;
50745;SDS011;36711;51.972;21.204;2023-03-21T04:39:46;20.10;;;9.10;;
50745;SDS011;36711;51.972;21.204;2023-03-21T04:42:16;14.70;;;8.00;;
50745;SDS011;36711;51.972;21.204;2023-03-21T04:44:48;16.60;;;9.60;;
50745;SDS011;36711;51.972;21.204;2023-03-21T04:47:17;12.20;;;7.70;;
50745;SDS011;36711;51.972;21.204;2023-03-21T04:49:47;12.80;;;7.80;;
50745;SDS011;36711;51.972;21.204;2023-03-21T04:52:16;14.40;;;8.40;;
50745;SDS011;36711;51.972;21.204;2023-03-21T04:54:45;14.90;;;7.60;;
50745;SDS011;36711;51.972;21.204;2023-03-21T04:57:14;12.00;;;6.20;;
50745;SDS011;36711;51.972;21.204;2023-03-21T04:59:43;11.70;;;6.80;;
50745;SDS011;36711;51.972;21.204;2023-03-21T05:02:12;9.80;;;6.00;;
50745;SDS011;36711;51.972;21.204;2023-03-21T05:04:41;9.20;;;6.30;;
50745;SDS011;36711;51.972;21.204;2023-03-21T05:07:10;11.20;;;6.20;;
50745;SDS011;36711;51.972;21.204;2023-03-21T05:09:39;13.40;;;6.90;;
50745;SDS011;36711;51.972;21.204;2023-03-21T05:12:07;9.30;;;6.20;;
50745;SDS011;36711;51.972;21.204;2023-03-21T05:14:36;10.30;;;6.10;;
50745;SDS011;36711;51.972;21.204;2023-03-21T05:17:05;11.50;;;7.00;;
50745;SDS011;36711;51.972;21.204;2023-03-21T05:19:34;9.90;;;6.40;;
50745;SDS011;36711;51.972;21.204;2023-03-21T05:22:04;10.80;;;6.60;;
50745;SDS011;36711;51.972;21.204;2023-03-21T05:24:33;10.70;;;6.60;;
50745;SDS011;36711;51.972;21.204;2023-03-21T05:27:02;12.20;;;7.80;;
50745;SDS011;36711;51.972;21.204;2023-03-21T05:29:31;11.90;;;6.90;;
50745;SDS011;36711;51.972;21.204;2023-03-21T05:32:01;11.90;;;7.30;;
50745;SDS011;36711;51.972;21.204;2023-03-21T05:34:29;13.20;;;7.40;;
50745;SDS011;36711;51.972;21.204;2023-03-21T05:36:59;12.20;;;6.70;;
50745;SDS011;36711;51.972;21.204;2023-03-21T05:39:28;12.70;;;7.20;;
50745;SDS011;36711;51.972;21.204;2023-03-21T05:41:57;18.60;;;8.60;;
50745;SDS011;36711;51.972;21.204;2023-03-21T05:44:25;16.70;;;9.50;;
50745;SDS011;36711;51.972;21.204;2023-03-21T05:46:54;12.80;;;7.60;;
50745;SDS011;36711;51.972;21.204;2023-03-21T05:49:24;10.80;;;6.40;;
50745;SDS011;36711;51.972;21.204;2023-03-21T05:51:54;13.50;;;7.30;;
50745;SDS011;36711;51.972;21.204;2023-03-21T05:54:22;10.60;;;6.60;;
50745;SDS011;36711;51.972;21.204;2023-03-21T05:56:51;12.00;;;6.90;;
50745;SDS011;36711;51.972;21.204;2023-03-21T05:59:21;12.70;;;7.30;;
50745;SDS011;36711;51.972;21.204;2023-03-21T06:01:49;11.60;;;7.00;;
50745;SDS011;36711;51.972;21.204;2023-03-21T06:04:18;11.80;;;7.80;;
50745;SDS011;36711;51.972;21.204;2023-03-21T06:06:47;14.40;;;8.80;;
50745;SDS011;36711;51.972;21.204;2023-03-21T06:09:16;11.10;;;7.20;;
50745;SDS011;36711;51.972;21.204;2023-03-21T06:11:49;9.20;;;6.30;;
50745;SDS011;36711;51.972;21.204;2023-03-21T06:14:18;9.90;;;6.40;;
50745;SDS011;36711;51.972;21.204;2023-03-21T06:16:47;11.10;;;6.00;;
50745;SDS011;36711;51.972;21.204;2023-03-21T06:19:16;10.00;;;6.50;;
50745;SDS011;36711;51.972;21.204;2023-03-21T06:21:45;9.80;;;6.20;;
50745;SDS011;36711;51.972;21.204;2023-03-21T06:24:14;10.00;;;6.30;;
50745;SDS011;36711;51.972;21.204;2023-03-21T06:26:43;9.80;;;5.90;;
50745;SDS011;36711;51.972;21.204;2023-03-21T06:29:12;7.70;;;5.10;;
50745;SDS011;36711;51.972;21.204;2023-03-21T06:31:41;8.60;;;6.10;;
50745;SDS011;36711;51.972;21.204;2023-03-21T06:34:10;11.40;;;7.70;;
50745;SDS011;36711;51.972;21.204;2023-03-21T06:36:39;11.30;;;7.20;;
50745;SDS011;36711;51.972;21.204;2023-03-21T06:39:08;12.50;;;7.10;;
50745;SDS011;36711;51.972;21.204;2023-03-21T06:41:38;10.90;;;6.20;;
50745;SDS011;36711;51.972;21.204;2023-03-21T06:44:06;10.90;;;7.30;;
50745;SDS011;36711;51.972;21.204;2023-03-21T06:46:35;11.70;;;6.00;;
50745;SDS011;36711;51.972;21.204;2023-03-21T06:49:04;11.20;;;6.00;;
50745;SDS011;36711;51.972;21.204;2023-03-21T06:51:33;8.70;;;5.60;;
50745;SDS011;36711;51.972;21.204;2023-03-21T06:54:01;12.80;;;6.00;;
50745;SDS011;36711;51.972;21.204;2023-03-21T06:56:30;8.80;;;6.20;;
50745;SDS011;36711;51.972;21.204;2023-03-21T06:58:59;9.20;;;6.20;;
50745;SDS011;36711;51.972;21.204;2023-03-21T07:01:28;16.40;;;9.30;;
50745;SDS011;36711;51.972;21.204;2023-03-21T07:03:58;10.20;;;6.40;;
50745;SDS011;36711;51.972;21.204;2023-03-21T07:06:27;10.00;;;6.20;;
50745;SDS011;36711;51.972;21.204;2023-03-21T07:08:55;8.60;;;5.40;;
50745;SDS011;36711;51.972;21.204;2023-03-21T07:11:24;11.80;;;6.70;;
50745;SDS011;36711;51.972;21.204;2023-03-21T07:13:53;11.50;;;7.00;;
50745;SDS011;36711;51.972;21.204;2023-03-21T07:16:22;9.80;;;6.40;;
50745;SDS011;36711;51.972;21.204;2023-03-21T07:18:52;7.70;;;4.70;;
50745;SDS011;36711;51.972;21.204;2023-03-21T07:21:21;6.40;;;3.60;;
50745;SDS011;36711;51.972;21.204;2023-03-21T07:23:53;7.20;;;3.90;;
50745;SDS011;36711;51.972;21.204;2023-03-21T07:26:22;7.00;;;3.90;;
50745;SDS011;36711;51.972;21.204;2023-03-21T07:28:51;5.60;;;4.00;;
50745;SDS011;36711;51.972;21.204;2023-03-21T07:31:20;9.80;;;4.50;;
50745;SDS011;36711;51.972;21.204;2023-03-21T07:33:49;8.30;;;3.90;;
50745;SDS011;36711;51.972;21.204;2023-03-21T07:36:17;7.60;;;3.90;;
50745;SDS011;36711;51.972;21.204;2023-03-21T07:38:46;6.80;;;3.90;;
50745;SDS011;36711;51.972;21.204;2023-03-21T07:41:15;8.70;;;5.10;;
50745;SDS011;36711;51.972;21.204;2023-03-21T07:43:49;7.10;;;4.40;;
50745;SDS011;36711;51.972;21.204;2023-03-21T07:46:18;6.30;;;4.00;;
50745;SDS011;36711;51.972;21.204;2023-03-21T07:48:47;6.00;;;4.20;;
50745;SDS011;36711;51.972;21.204;2023-03-21T07:51:15;4.40;;;3.50;;
50745;SDS011;36711;51.972;21.204;2023-03-21T07:53:44;7.30;;;3.70;;
50745;SDS011;36711;51.972;21.204;2023-03-21T07:56:16;5.90;;;4.10;;
50745;SDS011;36711;51.972;21.204;2023-03-21T07:58:44;4.20;;;3.20;;
50745;SDS011;36711;51.972;21.204;2023-03-21T08:01:13;6.00;;;3.50;;
50745;SDS011;36711;51.972;21.204;2023-03-21T08:03:42;5.50;;;3.60;;
50745;SDS011;36711;51.972;21.204;2023-03-21T08:06:11;7.20;;;4.40;;
50745;SDS011;36711;51.972;21.204;2023-03-21T08:08:40;5.20;;;3.80;;
50745;SDS011;36711;51.972;21.204;2023-03-21T08:11:09;6.60;;;4.50;;
50745;SDS011;36711;51.972;21.204;2023-03-21T08:13:38;5.20;;;3.90;;
50745;SDS011;36711;51.972;21.204;2023-03-21T08:16:07;7.10;;;3.80;;
50745;SDS011;36711;51.972;21.204;2023-03-21T08:18:36;5.20;;;3.90;;
50745;SDS011;36711;51.972;21.204;2023-03-21T08:21:05;5.70;;;3.40;;
50745;SDS011;36711;51.972;21.204;2023-03-21T08:23:37;5.10;;;3.20;;
50745;SDS011;36711;51.972;21.204;2023-03-21T08:26:06;6.50;;;3.20;;
50745;SDS011;36711;51.972;21.204;2023-03-21T08:28:35;4.90;;;3.70;;
50745;SDS011;36711;51.972;21.204;2023-03-21T08:31:07;8.90;;;5.10;;
50745;SDS011;36711;51.972;21.204;2023-03-21T08:33:37;6.60;;;4.30;;
50745;SDS011;36711;51.972;21.204;2023-03-21T08:36:06;8.90;;;5.50;;
50745;SDS011;36711;51.972;21.204;2023-03-21T08:38:35;4.50;;;3.30;;
50745;SDS011;36711;51.972;21.204;2023-03-21T08:41:04;4.10;;;3.20;;
50745;SDS011;36711;51.972;21.204;2023-03-21T08:43:33;5.70;;;2.70;;
50745;SDS011;36711;51.972;21.204;2023-03-21T08:46:02;3.40;;;2.70;;
50745;SDS011;36711;51.972;21.204;2023-03-21T08:48:31;4.90;;;2.90;;
50745;SDS011;36711;51.972;21.204;2023-03-21T08:51:01;3.30;;;2.40;;
50745;SDS011;36711;51.972;21.204;2023-03-21T08:53:30;5.00;;;2.50;;
50745;SDS011;36711;51.972;21.204;2023-03-21T08:55:58;5.20;;;3.00;;
50745;SDS011;36711;51.972;21.204;2023-03-21T08:58:27;4.30;;;2.30;;
50745;SDS011;36711;51.972;21.204;2023-03-21T09:00:56;3.50;;;2.20;;
50745;SDS011;36711;51.972;21.204;2023-03-21T09:03:25;3.70;;;2.40;;
50745;SDS011;36711;51.972;21.204;2023-03-21T09:05:55;2.90;;;2.40;;
50745;SDS011;36711;51.972;21.204;2023-03-21T09:08:24;2.40;;;2.00;;
50745;SDS011;36711;51.972;21.204;2023-03-21T09:10:53;3.60;;;1.90;;
50745;SDS011;36711;51.972;21.204;2023-03-21T09:13:22;2.20;;;1.80;;
50745;SDS011;36711;51.972;21.204;2023-03-21T09:15:52;2.30;;;1.40;;
50745;SDS011;36711;51.972;21.204;2023-03-21T09:18:22;3.40;;;1.50;;
50745;SDS011;36711;51.972;21.204;2023-03-21T09:21:07;2.00;;;1.40;;
50745;SDS011;36711;51.972;21.204;2023-03-21T09:23:40;3.10;;;1.70;;
50745;SDS011;36711;51.972;21.204;2023-03-21T09:26:09;3.20;;;1.80;;
50745;SDS011;36711;51.972;21.204;2023-03-21T09:28:38;1.70;;;1.60;;
50745;SDS011;36711;51.972;21.204;2023-03-21T09:31:08;1.70;;;1.60;;
50745;SDS011;36711;51.972;21.204;2023-03-21T09:33:40;2.20;;;2.00;;
50745;SDS011;36711;51.972;21.204;2023-03-21T09:36:10;2.40;;;2.20;;
50745;SDS011;36711;51.972;21.204;2023-03-21T09:38:42;3.30;;;2.50;;
50745;SDS011;36711;51.972;21.204;2023-03-21T09:43:53;3.60;;;2.00;;
50745;SDS011;36711;51.972;21.204;2023-03-21T09:49:14;4.60;;;2.60;;
50745;SDS011;36711;51.972;21.204;2023-03-21T09:51:46;3.20;;;2.40;;
50745;SDS011;36711;51.972;21.204;2023-03-21T09:54:21;3.60;;;2.30;;
50745;SDS011;36711;51.972;21.204;2023-03-21T09:56:55;2.70;;;2.40;;
50745;SDS011;36711;51.972;21.204;2023-03-21T09:59:35;2.60;;;2.40;;
50745;SDS011;36711;51.972;21.204;2023-03-21T10:03:13;2.30;;;2.10;;
50745;SDS011;36711;51.972;21.204;2023-03-21T10:05:26;2.50;;;2.30;;
50745;SDS011;36711;51.972;21.204;2023-03-21T10:10:26;2.30;;;2.20;;
50745;SDS011;36711;51.972;21.204;2023-03-21T10:12:56;5.50;;;2.70;;
50745;SDS011;36711;51.972;21.204;2023-03-21T10:15:25;5.10;;;2.90;;
50745;SDS011;36711;51.972;21.204;2023-03-21T10:17:56;4.80;;;2.60;;
50745;SDS011;36711;51.972;21.204;2023-03-21T10:20:32;2.50;;;2.30;;
50745;SDS011;36711;51.972;21.204;2023-03-21T10:23:06;1.80;;;1.70;;
50745;SDS011;36711;51.972;21.204;2023-03-21T10:25:39;1.90;;;1.80;;
50745;SDS011;36711;51.972;21.204;2023-03-21T10:28:12;2.00;;;1.60;;
50745;SDS011;36711;51.972;21.204;2023-03-21T10:33:28;1.80;;;1.70;;
50745;SDS011;36711;51.972;21.204;2023-03-21T10:36:09;2.30;;;2.10;;
50745;SDS011;36711;51.972;21.204;2023-03-21T10:38:40;2.00;;;1.80;;
50745;SDS011;36711;51.972;21.204;2023-03-21T10:41:11;3.10;;;1.80;;
50745;SDS011;36711;51.972;21.204;2023-03-21T10:43:41;1.80;;;1.70;;
50745;SDS011;36711;51.972;21.204;2023-03-21T10:46:16;2.60;;;2.30;;
50745;SDS011;36711;51.972;21.204;2023-03-21T10:48:49;2.80;;;2.10;;
50745;SDS011;36711;51.972;21.204;2023-03-21T10:51:21;3.60;;;2.20;;
50745;SDS011;36711;51.972;21.204;2023-03-21T10:54:13;1.50;;;1.40;;
50745;SDS011;36711;51.972;21.204;2023-03-21T10:56:41;1.80;;;1.60;;
50745;SDS011;36711;51.972;21.204;2023-03-21T10:59:15;2.00;;;1.50;;
50745;SDS011;36711;51.972;21.204;2023-03-21T11:01:49;1.80;;;1.70;;
50745;SDS011;36711;51.972;21.204;2023-03-21T11:04:20;2.40;;;1.90;;
50745;SDS011;36711;51.972;21.204;2023-03-21T11:06:57;2.50;;;2.20;;
50745;SDS011;36711;51.972;21.204;2023-03-21T11:09:44;2.90;;;2.00;;
50745;SDS011;36711;51.972;21.204;2023-03-21T11:12:15;4.00;;;1.70;;
50745;SDS011;36711;51.972;21.204;2023-03-21T11:14:48;3.90;;;2.30;;
50745;SDS011;36711;51.972;21.204;2023-03-21T11:17:19;2.20;;;1.90;;
50745;SDS011;36711;51.972;21.204;2023-03-21T11:19:50;3.40;;;1.60;;
50745;SDS011;36711;51.972;21.204;2023-03-21T11:22:20;2.20;;;1.60;;
50745;SDS011;36711;51.972;21.204;2023-03-21T11:24:51;4.30;;;1.50;;
50745;SDS011;36711;51.972;21.204;2023-03-21T11:27:20;4.00;;;1.50;;
50745;SDS011;36711;51.972;21.204;2023-03-21T11:29:49;1.70;;;1.40;;
50745;SDS011;36711;51.972;21.204;2023-03-21T11:32:19;1.30;;;1.20;;
50745;SDS011;36711;51.972;21.204;2023-03-21T11:34:50;1.90;;;1.50;;
50745;SDS011;36711;51.972;21.204;2023-03-21T11:37:33;2.60;;;1.60;;
50745;SDS011;36711;51.972;21.204;2023-03-21T11:40:22;4.60;;;1.30;;
50745;SDS011;36711;51.972;21.204;2023-03-21T11:42:59;2.40;;;1.30;;
50745;SDS011;36711;51.972;21.204;2023-03-21T11:45:32;2.10;;;1.60;;
50745;SDS011;36711;51.972;21.204;2023-03-21T11:48:09;1.90;;;1.70;;
50745;SDS011;36711;51.972;21.204;2023-03-21T11:50:44;1.80;;;1.60;;
50745;SDS011;36711;51.972;21.204;2023-03-21T11:56:03;3.00;;;2.50;;
50745;SDS011;36711;51.972;21.204;2023-03-21T12:06:44;2.90;;;1.80;;
50745;SDS011;36711;51.972;21.204;2023-03-21T12:17:28;5.00;;;2.10;;
50745;SDS011;36711;51.972;21.204;2023-03-21T12:22:40;3.70;;;2.10;;
50745;SDS011;36711;51.972;21.204;2023-03-21T12:27:52;3.90;;;2.00;;
50745;SDS011;36711;51.972;21.204;2023-03-21T12:33:11;2.50;;;1.80;;
50745;SDS011;36711;51.972;21.204;2023-03-21T12:38:24;2.40;;;1.90;;
50745;SDS011;36711;51.972;21.204;2023-03-21T12:43:45;2.50;;;1.80;;
50745;SDS011;36711;51.972;21.204;2023-03-21T12:48:46;3.90;;;1.70;;
50745;SDS011;36711;51.972;21.204;2023-03-21T12:51:17;3.80;;;1.80;;
50745;SDS011;36711;51.972;21.204;2023-03-21T12:54:00;3.70;;;1.70;;
50745;SDS011;36711;51.972;21.204;2023-03-21T12:59:40;2.90;;;1.70;;
50745;SDS011;36711;51.972;21.204;2023-03-21T13:02:13;4.10;;;1.60;;
50745;SDS011;36711;51.972;21.204;2023-03-21T13:04:46;1.60;;;1.40;;
50745;SDS011;36711;51.972;21.204;2023-03-21T13:07:17;3.10;;;1.80;;
50745;SDS011;36711;51.972;21.204;2023-03-21T13:09:47;2.20;;;1.60;;
50745;SDS011;36711;51.972;21.204;2023-03-21T13:15:13;3.90;;;2.10;;
50745;SDS011;36711;51.972;21.204;2023-03-21T13:17:57;2.00;;;1.70;;
50745;SDS011;36711;51.972;21.204;2023-03-21T13:20:34;2.00;;;1.70;;
50745;SDS011;36711;51.972;21.204;2023-03-21T13:23:07;3.80;;;2.40;;
50745;SDS011;36711;51.972;21.204;2023-03-21T13:25:46;2.50;;;1.80;;
50745;SDS011;36711;51.972;21.204;2023-03-21T13:28:21;2.10;;;1.40;;
50745;SDS011;36711;51.972;21.204;2023-03-21T13:30:50;1.60;;;1.40;;
50745;SDS011;36711;51.972;21.204;2023-03-21T13:33:20;1.30;;;1.20;;
50745;SDS011;36711;51.972;21.204;2023-03-21T13:35:57;2.10;;;1.50;;
50745;SDS011;36711;51.972;21.204;2023-03-21T13:38:28;1.60;;;1.40;;
50745;SDS011;36711;51.972;21.204;2023-03-21T13:43:34;1.30;;;1.10;;
50745;SDS011;36711;51.972;21.204;2023-03-21T13:46:07;1.10;;;1.00;;
50745;SDS011;36711;51.972;21.204;2023-03-21T14:01:59;1.10;;;1.00;;
50745;SDS011;36711;51.972;21.204;2023-03-21T14:04:28;1.30;;;1.20;;
50745;SDS011;36711;51.972;21.204;2023-03-21T14:07:11;1.30;;;1.20;;
50745;SDS011;36711;51.972;21.204;2023-03-21T14:09:46;1.80;;;1.40;;
50745;SDS011;36711;51.972;21.204;2023-03-21T14:12:16;2.30;;;1.30;;
50745;SDS011;36711;51.972;21.204;2023-03-21T14:14:48;1.40;;;1.30;;
50745;SDS011;36711;51.972;21.204;2023-03-21T14:17:24;2.00;;;1.30;;
50745;SDS011;36711;51.972;21.204;2023-03-21T14:19:54;1.30;;;1.20;;
50745;SDS011;36711;51.972;21.204;2023-03-21T14:22:23;4.20;;;1.30;;
50745;SDS011;36711;51.972;21.204;2023-03-21T14:24:56;1.60;;;1.20;;
50745;SDS011;36711;51.972;21.204;2023-03-21T14:27:30;1.60;;;1.30;;
50745;SDS011;36711;51.972;21.204;2023-03-21T14:29:59;1.20;;;0.90;;
50745;SDS011;36711;51.972;21.204;2023-03-21T14:32:28;1.40;;;0.90;;
50745;SDS011;36711;51.972;21.204;2023-03-21T14:34:58;1.50;;;0.90;;
50745;SDS011;36711;51.972;21.204;2023-03-21T14:37:29;2.40;;;1.20;;
50745;SDS011;36711;51.972;21.204;2023-03-21T14:40:02;1.60;;;1.10;;
50745;SDS011;36711;51.972;21.204;2023-03-21T14:42:36;1.20;;;1.10;;
50745;SDS011;36711;51.972;21.204;2023-03-21T14:45:28;1.20;;;1.10;;
50745;SDS011;36711;51.972;21.204;2023-03-21T14:47:58;1.20;;;0.90;;
50745;SDS011;36711;51.972;21.204;2023-03-21T14:58:25;1.90;;;1.30;;
50745;SDS011;36711;51.972;21.204;2023-03-21T15:00:55;1.50;;;1.00;;
50745;SDS011;36711;51.972;21.204;2023-03-21T15:03:24;1.30;;;1.20;;
50745;SDS011;36711;51.972;21.204;2023-03-21T15:05:56;1.80;;;1.10;;
50745;SDS011;36711;51.972;21.204;2023-03-21T15:08:26;1.40;;;1.20;;
50745;SDS011;36711;51.972;21.204;2023-03-21T15:16:09;1.00;;;1.00;;
50745;SDS011;36711;51.972;21.204;2023-03-21T15:18:39;1.50;;;1.30;;
50745;SDS011;36711;51.972;21.204;2023-03-21T15:21:09;2.60;;;1.00;;
50745;SDS011;36711;51.972;21.204;2023-03-21T15:23:42;3.50;;;1.40;;
50745;SDS011;36711;51.972;21.204;2023-03-21T15:26:15;6.90;;;1.50;;
50745;SDS011;36711;51.972;21.204;2023-03-21T15:28:45;1.40;;;1.30;;
50745;SDS011;36711;51.972;21.204;2023-03-21T15:31:16;1.50;;;1.20;;
50745;SDS011;36711;51.972;21.204;2023-03-21T15:33:48;2.10;;;1.50;;
50745;SDS011;36711;51.972;21.204;2023-03-21T15:36:22;2.00;;;1.80;;
50745;SDS011;36711;51.972;21.204;2023-03-21T15:38:53;1.80;;;1.60;;
50745;SDS011;36711;51.972;21.204;2023-03-21T15:46:38;2.50;;;1.90;;
50745;SDS011;36711;51.972;21.204;2023-03-21T15:54:15;5.00;;;3.40;;
50745;SDS011;36711;51.972;21.204;2023-03-21T15:56:45;4.20;;;3.00;;
50745;SDS011;36711;51.972;21.204;2023-03-21T15:59:14;5.30;;;2.90;;
50745;SDS011;36711;51.972;21.204;2023-03-21T16:01:47;5.40;;;3.00;;
50745;SDS011;36711;51.972;21.204;2023-03-21T16:04:16;3.80;;;2.90;;
50745;SDS011;36711;51.972;21.204;2023-03-21T16:06:50;2.30;;;2.10;;
50745;SDS011;36711;51.972;21.204;2023-03-21T16:09:20;2.90;;;1.90;;
50745;SDS011;36711;51.972;21.204;2023-03-21T16:11:53;4.50;;;3.40;;
50745;SDS011;36711;51.972;21.204;2023-03-21T16:14:25;6.50;;;3.40;;
50745;SDS011;36711;51.972;21.204;2023-03-21T16:16:57;3.60;;;2.20;;
50745;SDS011;36711;51.972;21.204;2023-03-21T16:19:26;2.80;;;2.30;;
50745;SDS011;36711;51.972;21.204;2023-03-21T16:21:57;3.50;;;2.40;;
50745;SDS011;36711;51.972;21.204;2023-03-21T16:24:25;5.40;;;2.10;;
50745;SDS011;36711;51.972;21.204;2023-03-21T16:26:54;4.00;;;2.50;;
50745;SDS011;36711;51.972;21.204;2023-03-21T16:29:24;7.50;;;2.70;;
50745;SDS011;36711;51.972;21.204;2023-03-21T16:31:52;3.30;;;2.10;;
50745;SDS011;36711;51.972;21.204;2023-03-21T16:34:21;3.60;;;2.60;;
50745;SDS011;36711;51.972;21.204;2023-03-21T16:36:50;4.00;;;2.30;;
50745;SDS011;36711;51.972;21.204;2023-03-21T16:39:20;4.80;;;2.40;;
50745;SDS011;36711;51.972;21.204;2023-03-21T16:41:49;3.70;;;2.20;;
50745;SDS011;36711;51.972;21.204;2023-03-21T16:44:19;2.90;;;2.10;;
50745;SDS011;36711;51.972;21.204;2023-03-21T16:46:48;4.10;;;2.20;;
50745;SDS011;36711;51.972;21.204;2023-03-21T16:49:23;3.80;;;2.30;;
50745;SDS011;36711;51.972;21.204;2023-03-21T16:51:53;3.10;;;2.20;;
50745;SDS011;36711;51.972;21.204;2023-03-21T16:54:23;3.20;;;2.30;;